Time;durP1;ratioP1;P1;durP2;ratioP2;P2;SDS_P1;SDS_P2;PMS_P1;PMS_P2;Temp;Humidity;BMP_temperature;BMP_pressure;BME280_temperature;BME280_humidity;BME280_pressure;Samples;Min_cycle;Max_cycle;Signal;HPM_P1;HPM_P2
2021/01/23 00:02:22;;;;;;;74.68;27.13;;;;;;;3.94;84.04;97959.06;5076979;28;20064;-45
2021/01/23 00:04:48;;;;;;;68.72;23.33;;;;;;;3.92;83.56;97972.06;5077272;28;20044;-45
2021/01/23 00:07:14;;;;;;;139.30;35.97;;;;;;;3.80;83.88;97961.16;5077634;28;20333;-45
2021/01/23 00:09:39;;;;;;;109.30;34.63;;;;;;;3.80;85.35;97968.94;5077358;28;20417;-45
2021/01/23 00:12:06;;;;;;;128.63;37.70;;;;;;;3.83;84.60;97953.31;5077550;28;20052;-45
2021/01/23 00:14:32;;;;;;;159.25;42.25;;;;;;;3.80;84.40;97956.00;5077141;28;20516;-45
2021/01/23 00:16:58;;;;;;;167.90;42.60;;;;;;;3.74;84.19;97944.94;5077317;28;20048;-45
2021/01/23 00:19:24;;;;;;;153.82;41.35;;;;;;;3.74;83.99;97941.50;5077011;28;20048;-45
2021/01/23 00:21:51;;;;;;;135.10;34.95;;;;;;;3.59;84.40;97937.56;5077317;28;20062;-45
2021/01/23 00:24:17;;;;;;;103.65;28.58;;;;;;;3.55;84.62;97935.09;5077005;28;20076;-45
2021/01/23 00:26:44;;;;;;;178.98;52.10;;;;;;;3.56;84.93;97929.88;5077203;28;20056;-45
2021/01/23 00:29:14;;;;;;;179.05;56.05;;;;;;;3.48;86.02;97921.47;5077171;28;20052;-45
2021/01/23 00:31:40;;;;;;;210.18;61.67;;;;;;;3.43;87.17;97915.56;5077251;28;20356;-45
2021/01/23 00:34:06;;;;;;;243.32;73.15;;;;;;;3.39;87.14;97912.22;5109776;28;20053;-45
2021/01/23 00:36:32;;;;;;;169.68;50.55;;;;;;;3.32;87.88;97917.59;5076480;28;20403;-45
2021/01/23 00:38:58;;;;;;;115.07;49.53;;;;;;;3.30;87.39;97909.84;5110312;28;20056;-45
2021/01/23 00:41:26;;;;;;;68.80;29.30;;;;;;;3.26;87.62;97905.66;5076926;28;20133;-45
2021/01/23 00:43:56;;;;;;;67.65;35.97;;;;;;;3.29;87.33;97895.22;5059654;28;20447;-45
2021/01/23 00:46:22;;;;;;;40.92;22.02;;;;;;;3.27;87.36;97900.44;5076848;28;20052;-45
2021/01/23 00:48:48;;;;;;;35.10;15.73;;;;;;;3.05;88.76;97894.09;5075705;28;20323;-45
2021/01/23 00:51:14;;;;;;;29.10;15.00;;;;;;;3.08;88.60;97883.69;5076755;28;20060;-45
2021/01/23 00:53:41;;;;;;;32.38;17.10;;;;;;;3.06;88.57;97882.88;5076483;28;20075;-45
2021/01/23 00:56:07;;;;;;;32.50;14.35;;;;;;;3.07;88.62;97876.81;5075804;28;20044;-45
2021/01/23 00:58:34;;;;;;;31.40;13.57;;;;;;;3.12;88.10;97887.03;5075814;28;20059;-45
2021/01/23 01:00:59;;;;;;;30.55;13.13;;;;;;;3.14;87.78;97893.03;5075485;28;20433;-45
2021/01/23 01:03:25;;;;;;;34.92;13.98;;;;;;;3.07;87.83;97897.50;5076131;28;20351;-45
2021/01/23 01:06:00;;;;;;;31.63;13.15;;;;;;;3.06;87.96;97903.56;5076322;28;20060;-45
2021/01/23 01:08:27;;;;;;;30.02;13.77;;;;;;;2.94;88.22;97896.13;5075724;28;20173;-45
2021/01/23 01:10:53;;;;;;;27.20;12.00;;;;;;;3.05;87.90;97896.69;5076467;28;20044;-45
2021/01/23 01:13:19;;;;;;;26.30;11.60;;;;;;;3.03;87.94;97893.31;5076153;28;20044;-45
2021/01/23 01:15:45;;;;;;;21.58;11.40;;;;;;;3.04;87.74;97889.81;5076434;28;20059;-45
2021/01/23 01:18:11;;;;;;;24.88;11.98;;;;;;;3.04;87.30;97889.81;5076418;28;20048;-45
2021/01/23 01:20:37;;;;;;;23.45;10.40;;;;;;;3.01;86.70;97885.56;5076114;28;20133;-45
2021/01/23 01:23:03;;;;;;;20.50;10.07;;;;;;;3.01;86.38;97897.66;5076097;28;20040;-45
2021/01/23 01:25:29;;;;;;;23.80;11.65;;;;;;;2.97;86.02;97894.31;5076345;28;20045;-45
2021/01/23 01:27:54;;;;;;;38.55;17.65;;;;;;;2.90;86.09;97897.94;5076021;28;20048;-45
2021/01/23 01:30:22;;;;;;;32.17;16.15;;;;;;;2.91;86.38;97896.19;5076301;28;20068;-45
2021/01/23 01:32:47;;;;;;;43.80;24.88;;;;;;;2.80;87.56;97894.72;5075979;28;20052;-45
2021/01/23 01:35:13;;;;;;;42.13;22.40;;;;;;;2.63;89.47;97881.31;5076492;28;20047;-45
2021/01/23 01:37:39;;;;;;;53.50;23.00;;;;;;;2.80;89.58;97870.59;5075341;28;20349;-45
2021/01/23 01:40:06;;;;;;;47.15;21.88;;;;;;;2.84;89.22;97869.63;5076213;28;20063;-45
2021/01/23 01:42:32;;;;;;;46.20;22.55;;;;;;;2.92;89.01;97872.03;5076182;28;20048;-45
2021/01/23 01:44:58;;;;;;;64.53;29.92;;;;;;;2.97;90.82;97865.84;5076078;28;20061;-45
2021/01/23 01:47:24;;;;;;;67.13;28.50;;;;;;;2.96;90.84;97873.66;5075829;28;20048;-45
2021/01/23 01:49:50;;;;;;;61.28;26.55;;;;;;;3.08;91.72;97869.91;5079486;28;20041;-45
2021/01/23 01:52:16;;;;;;;61.17;28.67;;;;;;;3.22;91.26;97879.00;5079890;28;20049;-45
2021/01/23 01:54:43;;;;;;;44.38;22.77;;;;;;;3.27;91.53;97879.72;5080079;28;20052;-45
2021/01/23 01:57:08;;;;;;;34.22;20.77;;;;;;;3.30;93.22;97871.03;5112743;28;20063;-45
2021/01/23 01:59:34;;;;;;;40.08;20.33;;;;;;;3.48;93.62;97867.97;5079978;28;20120;-45
2021/01/23 02:02:15;;;;;;;43.42;24.50;;;;;;;3.56;93.05;97861.72;5080074;28;20057;-45
2021/01/23 02:04:57;;;;;;;47.20;22.75;;;;;;;3.65;93.61;97858.88;5094643;28;20056;-45
2021/01/23 02:07:25;;;;;;;46.38;23.17;;;;;;;3.80;92.85;97860.16;5094620;28;20122;-45
2021/01/23 02:09:57;;;;;;;46.60;22.23;;;;;;;3.88;93.27;97856.47;5079900;28;20044;-45
2021/01/23 02:12:26;;;;;;;61.17;30.30;;;;;;;4.04;92.99;97854.28;5079589;28;20458;-45
2021/01/23 02:15:12;;;;;;;42.47;23.02;;;;;;;4.08;92.09;97848.13;5112115;28;20345;-45
2021/01/23 02:17:49;;;;;;;36.45;18.80;;;;;;;4.09;92.75;97851.53;5079446;28;20128;-45
2021/01/23 02:20:33;;;;;;;41.58;20.63;;;;;;;4.23;92.98;97852.00;5078800;28;20040;-45
2021/01/23 02:23:16;;;;;;;44.55;24.55;;;;;;;4.31;92.50;97855.19;5079660;28;20048;-45
2021/01/23 02:25:57;;;;;;;38.88;24.02;;;;;;;4.17;92.59;97844.41;5079680;28;20068;-45
2021/01/23 02:28:50;;;;;;;44.80;23.23;;;;;;;4.37;92.72;97847.22;5079261;28;20076;-45
2021/01/23 02:31:17;;;;;;;51.05;23.27;;;;;;;4.47;92.36;97846.94;5075801;28;20079;-45
2021/01/23 02:33:43;;;;;;;47.72;23.10;;;;;;;4.56;92.15;97838.88;5079355;28;20048;-45
2021/01/23 02:36:09;;;;;;;48.08;22.75;;;;;;;4.49;92.03;97827.00;5095253;28;20052;-45
2021/01/23 02:38:35;;;;;;;40.38;17.92;;;;;;;4.51;92.70;97820.84;5078440;28;20061;-45
2021/01/23 02:41:01;;;;;;;42.78;19.77;;;;;;;4.66;92.85;97812.59;5078099;28;20049;-45
2021/01/23 02:43:27;;;;;;;31.83;18.23;;;;;;;4.78;92.67;97829.50;5079251;28;20048;-45
2021/01/23 02:45:53;;;;;;;33.30;19.60;;;;;;;4.78;92.31;97819.13;5079214;28;20049;-45
2021/01/23 02:48:19;;;;;;;33.20;17.98;;;;;;;4.84;92.61;97813.75;5078017;28;20503;-45
2021/01/23 02:50:45;;;;;;;32.95;16.38;;;;;;;4.97;92.55;97811.56;5079135;28;20044;-45
2021/01/23 02:53:21;;;;;;;37.10;18.33;;;;;;;4.88;92.18;97804.09;5078746;28;20114;-45
2021/01/23 02:55:49;;;;;;;39.60;17.92;;;;;;;4.92;92.57;97793.56;5111152;28;20125;-46
2021/01/23 02:58:21;;;;;;;35.25;16.73;;;;;;;5.15;92.13;97795.34;5111598;28;20349;-45
2021/01/23 03:00:47;;;;;;;47.88;22.45;;;;;;;5.25;91.16;97795.03;5111516;28;20135;-46
2021/01/23 03:03:13;;;;;;;77.45;27.88;;;;;;;5.15;90.96;97787.56;5078438;28;20424;-46
2021/01/23 03:05:39;;;;;;;41.20;19.35;;;;;;;5.27;91.12;97786.31;5094725;28;20058;-46
2021/01/23 03:08:05;;;;;;;33.40;17.73;;;;;;;5.30;90.50;97778.41;5094744;28;20052;-46
2021/01/23 03:10:41;;;;;;;44.65;19.88;;;;;;;5.37;90.67;97772.09;5078459;28;20048;-46
2021/01/23 03:13:07;;;;;;;56.35;23.83;;;;;;;5.15;90.60;97766.81;5078764;28;20064;-46
2021/01/23 03:15:33;;;;;;;51.03;21.13;;;;;;;5.41;90.38;97762.44;5111412;28;20036;-45
2021/01/23 03:17:59;;;;;;;59.17;23.83;;;;;;;5.40;89.78;97760.75;5078373;28;20040;-46
2021/01/23 03:20:26;;;;;;;43.30;20.30;;;;;;;5.42;89.83;97760.69;5078327;28;20404;-45
2021/01/23 03:22:53;;;;;;;42.25;18.80;;;;;;;5.46;89.24;97757.06;5078272;28;20041;-46
2021/01/23 03:25:18;;;;;;;32.28;17.30;;;;;;;5.40;89.13;97758.16;5078229;28;20346;-46
2021/01/23 03:27:44;;;;;;;35.05;18.85;;;;;;;5.32;89.29;97753.22;5078212;28;20066;-45
2021/01/23 03:30:10;;;;;;;37.50;18.63;;;;;;;5.40;89.11;97752.97;5078317;28;20053;-45
2021/01/23 03:32:36;;;;;;;43.70;20.58;;;;;;;5.44;89.20;97749.34;5078328;28;20044;-46
2021/01/23 03:35:06;;;;;;;38.40;19.50;;;;;;;5.32;89.17;97749.78;5077984;28;20041;-46
2021/01/23 03:37:32;;;;;;;41.97;23.13;;;;;;;5.14;90.34;97746.13;5110940;28;20044;-46
2021/01/23 03:39:59;;;;;;;35.50;19.30;;;;;;;5.39;89.45;97743.44;5077353;28;20048;-45
2021/01/23 03:42:25;;;;;;;31.85;17.98;;;;;;;5.35;89.36;97741.88;5077825;28;20338;-46
2021/01/23 03:44:51;;;;;;;37.63;20.27;;;;;;;5.28;89.36;97748.22;5078093;28;20051;-46
2021/01/23 03:47:16;;;;;;;33.53;19.60;;;;;;;5.33;89.55;97744.53;5078074;28;20063;-45
2021/01/23 03:49:42;;;;;;;30.13;17.98;;;;;;;5.41;89.19;97730.44;5078076;28;20448;-45
2021/01/23 03:52:08;;;;;;;38.92;18.73;;;;;;;5.38;89.01;97734.81;5077671;28;20052;-45
2021/01/23 03:54:33;;;;;;;41.53;21.20;;;;;;;5.33;89.10;97728.09;5078001;28;20036;-46
2021/01/23 03:57:00;;;;;;;150.40;96.20;;;;;;;5.52;88.50;97723.91;5078041;28;20049;-46
2021/01/23 03:59:25;;;;;;;58.50;37.20;;;;;;;5.44;88.68;97725.13;5077823;28;20090;-45
2021/01/23 04:01:51;;;;;;;42.17;24.40;;;;;;;5.46;88.71;97713.78;5077940;28;20047;-46
2021/01/23 04:04:17;;;;;;;48.38;26.95;;;;;;;5.59;88.09;97707.22;5077315;28;20147;-45
2021/01/23 04:06:43;;;;;;;42.88;23.95;;;;;;;5.56;87.80;97714.28;5077685;28;20345;-45
2021/01/23 04:09:08;;;;;;;64.28;37.70;;;;;;;5.63;87.69;97710.53;5077369;28;20349;-46
2021/01/23 04:11:35;;;;;;;43.63;23.58;;;;;;;5.42;87.73;97714.78;5076982;28;20086;-46
2021/01/23 04:14:00;;;;;;;40.05;19.95;;;;;;;5.57;87.81;97705.59;5077449;28;20048;-46
2021/01/23 04:16:26;;;;;;;41.90;21.00;;;;;;;5.51;87.96;97706.66;5077463;28;20330;-46
2021/01/23 04:18:52;;;;;;;51.05;27.60;;;;;;;5.56;87.93;97694.34;5077424;28;20357;-46
2021/01/23 04:21:18;;;;;;;39.13;21.05;;;;;;;5.28;88.29;97689.34;5077353;28;20060;-45
2021/01/23 04:23:44;;;;;;;38.50;19.98;;;;;;;5.34;88.97;97698.66;5077333;28;20041;-46
2021/01/23 04:26:11;;;;;;;39.95;22.58;;;;;;;5.30;89.04;97691.91;5077274;28;20399;-46
2021/01/23 04:28:37;;;;;;;49.15;23.77;;;;;;;5.40;89.01;97677.66;5077250;28;20071;-46
2021/01/23 04:31:03;;;;;;;46.08;22.92;;;;;;;5.52;88.36;97682.38;5077979;28;20433;-46
2021/01/23 04:33:29;;;;;;;39.25;21.88;;;;;;;5.48;88.45;97683.41;5076168;28;20048;-46
2021/01/23 04:35:55;;;;;;;43.13;22.30;;;;;;;5.47;88.26;97673.94;5076772;28;20056;-46
2021/01/23 04:38:21;;;;;;;44.22;23.30;;;;;;;5.41;88.13;97668.97;5076969;28;20056;-46
2021/01/23 04:40:47;;;;;;;41.47;21.92;;;;;;;5.60;88.01;97669.09;5076723;28;20076;-46
2021/01/23 04:43:12;;;;;;;48.88;26.50;;;;;;;5.67;87.19;97656.72;5076974;28;20143;-46
2021/01/23 04:45:38;;;;;;;48.53;24.85;;;;;;;5.59;87.58;97650.09;5076804;28;20048;-46
2021/01/23 04:48:04;;;;;;;48.97;22.75;;;;;;;5.56;87.53;97654.56;5076875;28;20048;-46
2021/01/23 04:50:30;;;;;;;50.60;27.50;;;;;;;5.62;87.22;97655.16;5109638;28;20403;-46
2021/01/23 04:52:56;;;;;;;43.55;24.00;;;;;;;5.62;87.25;97652.56;5076828;28;20040;-46
2021/01/23 04:55:21;;;;;;;48.42;24.20;;;;;;;5.55;87.24;97656.28;5076511;28;20128;-46
2021/01/23 04:57:47;;;;;;;44.95;23.27;;;;;;;5.64;86.97;97649.91;5076690;28;20070;-46
2021/01/23 05:00:13;;;;;;;43.75;23.25;;;;;;;5.67;86.95;97648.94;5076436;28;20036;-46
2021/01/23 05:02:39;;;;;;;49.22;24.65;;;;;;;5.69;86.96;97645.38;5076114;28;20052;-46
2021/01/23 05:05:05;;;;;;;72.97;37.65;;;;;;;5.58;86.81;97643.19;5076340;28;20049;-46
2021/01/23 05:07:34;;;;;;;72.57;39.42;;;;;;;5.72;86.74;97634.00;5109358;28;20083;-46
2021/01/23 05:10:11;;;;;;;57.67;29.10;;;;;;;5.74;86.43;97633.03;5077112;28;20094;-46
2021/01/23 05:12:41;;;;;;;55.70;28.90;;;;;;;5.73;86.86;97628.75;5109247;28;20051;-46
2021/01/23 05:15:21;;;;;;;57.58;26.55;;;;;;;5.82;86.36;97633.59;5076456;28;20048;-46
2021/01/23 05:17:50;;;;;;;47.97;23.88;;;;;;;5.82;86.53;97619.75;5076523;28;20053;-46
2021/01/23 05:20:35;;;;;;;45.67;24.45;;;;;;;5.77;86.53;97629.47;5076448;28;20044;-46
2021/01/23 05:23:14;;;;;;;48.83;24.65;;;;;;;5.70;87.03;97613.28;5075232;28;20063;-46
2021/01/23 05:25:42;;;;;;;43.25;23.38;;;;;;;5.73;87.24;97602.78;5075179;28;20044;-46
2021/01/23 05:28:12;;;;;;;50.15;23.38;;;;;;;5.75;87.34;97597.50;5076067;28;20403;-46
2021/01/23 05:30:51;;;;;;;39.70;22.08;;;;;;;5.82;87.07;97593.78;5077694;28;20052;-46
2021/01/23 05:33:21;;;;;;;40.38;21.63;;;;;;;5.81;87.01;97592.06;5076328;28;20048;-46
2021/01/23 05:36:09;;;;;;;39.75;20.80;;;;;;;5.92;86.45;97592.47;5075881;28;20512;-46
2021/01/23 05:38:38;;;;;;;43.05;20.63;;;;;;;5.95;86.63;97583.75;5075975;28;20114;-46
2021/01/23 05:41:03;;;;;;;45.47;22.15;;;;;;;5.98;86.48;97583.59;5076228;28;20056;-46
2021/01/23 05:43:39;;;;;;;44.30;22.70;;;;;;;5.97;86.82;97584.53;5076219;28;20048;-46
2021/01/23 05:46:06;;;;;;;48.80;25.17;;;;;;;6.09;86.13;97574.47;5075936;28;20072;-46
2021/01/23 05:48:33;;;;;;;44.78;25.00;;;;;;;6.08;86.66;97575.38;5076188;28;20127;-46
2021/01/23 05:50:58;;;;;;;49.53;26.42;;;;;;;6.07;86.30;97571.06;5076103;28;20049;-46
2021/01/23 05:53:24;;;;;;;48.95;25.90;;;;;;;6.16;86.43;97569.00;5108771;28;20497;-46
2021/01/23 05:55:51;;;;;;;53.80;27.95;;;;;;;6.20;86.16;97561.00;5075696;28;20131;-46
2021/01/23 05:58:16;;;;;;;43.45;20.40;;;;;;;6.19;86.29;97571.47;5076085;28;20404;-46
2021/01/23 06:00:42;;;;;;;42.67;19.33;;;;;;;6.26;86.29;97565.09;5076038;28;20056;-46
2021/01/23 06:03:09;;;;;;;39.58;19.42;;;;;;;6.34;85.56;97563.03;5074642;28;20064;-46
2021/01/23 06:05:35;;;;;;;36.35;18.48;;;;;;;6.22;85.96;97559.19;5091568;28;20426;-46
2021/01/23 06:08:00;;;;;;;37.22;19.58;;;;;;;6.33;86.07;97559.56;5091850;28;20040;-46
2021/01/23 06:10:26;;;;;;;36.17;20.00;;;;;;;6.40;85.62;97560.16;5075644;28;20064;-46
2021/01/23 06:12:55;;;;;;;37.95;18.50;;;;;;;6.42;85.44;97562.69;5075564;28;20048;-46
2021/01/23 06:15:40;;;;;;;32.95;18.05;;;;;;;6.49;85.13;97561.50;5075789;28;20055;-46
2021/01/23 06:18:21;;;;;;;37.67;19.83;;;;;;;6.48;85.30;97552.00;5075817;28;20048;-46
2021/01/23 06:20:48;;;;;;;36.28;19.80;;;;;;;6.48;85.30;97557.22;5075737;28;20052;-46
2021/01/23 06:23:16;;;;;;;35.30;19.33;;;;;;;6.52;85.05;97569.16;5075810;28;20408;-46
2021/01/23 06:25:51;;;;;;;42.15;21.08;;;;;;;6.59;85.01;97559.31;5075554;28;20452;-46
2021/01/23 06:28:17;;;;;;;33.22;18.88;;;;;;;6.59;85.00;97552.34;5075489;28;20049;-46
2021/01/23 06:30:42;;;;;;;38.75;18.25;;;;;;;6.65;84.87;97556.44;5075759;28;20048;-46
2021/01/23 06:33:23;;;;;;;30.35;17.95;;;;;;;6.65;84.95;97552.09;5108525;28;20075;-46
2021/01/23 06:36:01;;;;;;;32.42;17.58;;;;;;;6.73;84.59;97556.97;5078354;28;20051;-46
2021/01/23 06:38:28;;;;;;;39.80;20.42;;;;;;;6.75;85.06;97552.53;5079392;28;20062;-46
2021/01/23 06:40:54;;;;;;;42.88;18.75;;;;;;;6.78;84.91;97549.78;5079308;28;20052;-48
2021/01/23 06:43:20;;;;;;;38.38;21.45;;;;;;;6.83;84.52;97558.25;5079279;28;20459;-48
2021/01/23 06:45:45;;;;;;;41.35;18.92;;;;;;;6.77;84.78;97554.16;5078325;28;20048;-46
2021/01/23 06:48:12;;;;;;;40.47;20.40;;;;;;;6.79;85.11;97554.06;5078868;28;20456;-46
2021/01/23 06:50:39;;;;;;;34.30;16.77;;;;;;;6.86;84.89;97549.41;5078940;28;20048;-46
2021/01/23 06:53:26;;;;;;;32.00;17.13;;;;;;;6.83;85.08;97544.38;5095398;28;20139;-46
2021/01/23 06:55:55;;;;;;;30.73;15.77;;;;;;;6.86;85.38;97542.47;5077297;28;20045;-46
2021/01/23 06:58:26;;;;;;;35.03;17.00;;;;;;;6.86;85.54;97533.81;5075953;28;20041;-46
2021/01/23 07:00:58;;;;;;;32.75;15.52;;;;;;;6.87;85.70;97536.34;5077003;28;20045;-46
2021/01/23 07:03:29;;;;;;;40.80;16.88;;;;;;;6.93;85.26;97535.25;5076592;28;20048;-46
2021/01/23 07:05:55;;;;;;;33.10;16.52;;;;;;;6.94;85.57;97532.53;5076589;28;20464;-46
2021/01/23 07:08:20;;;;;;;40.03;18.50;;;;;;;6.95;85.54;97531.63;5076567;28;20048;-46
2021/01/23 07:11:16;;;;;;;35.88;16.98;;;;;;;6.88;86.08;97524.19;5077968;28;20048;-46
2021/01/23 07:13:59;;;;;;;38.55;20.80;;;;;;;6.93;86.22;97527.44;5078651;28;20049;-46
2021/01/23 07:16:25;;;;;;;57.17;32.05;;;;;;;6.96;86.29;97529.88;5094652;28;20071;-46
2021/01/23 07:19:00;;;;;;;40.38;21.92;;;;;;;7.06;85.77;97530.31;5078377;28;20040;-46
2021/01/23 07:21:28;;;;;;;35.28;18.05;;;;;;;6.96;86.37;97527.28;5078630;28;20106;-46
2021/01/23 07:23:55;;;;;;;45.25;22.38;;;;;;;7.06;86.38;97518.13;5078486;28;20040;-46
2021/01/23 07:26:21;;;;;;;42.38;19.33;;;;;;;7.07;86.28;97517.22;5078167;28;20131;-46
2021/01/23 07:28:54;;;;;;;45.05;21.58;;;;;;;7.18;85.86;97511.47;5078757;28;20432;-46
2021/01/23 07:31:20;;;;;;;;;;;;;;;6.95;86.43;97516.00;5111645;28;20057;-46
2021/01/23 07:33:46;;;;;;;52.75;28.92;;;;;;;7.10;86.01;97511.03;5078052;28;19920;-46
2021/01/23 07:36:35;;;;;;;46.55;26.90;;;;;;;7.14;86.24;97515.16;5078059;28;20052;-46
2021/01/23 07:39:07;;;;;;;65.05;33.40;;;;;;;7.15;86.41;97501.22;5077455;28;20052;-46
2021/01/23 07:41:33;;;;;;;95.47;55.53;;;;;;;7.21;86.51;97504.41;5078281;28;20063;-46
2021/01/23 07:43:59;;;;;;;63.63;34.45;;;;;;;7.24;86.37;97504.22;5110918;28;20056;-46
2021/01/23 07:46:32;;;;;;;64.93;34.45;;;;;;;7.31;85.95;97506.53;5093011;28;20055;-46
2021/01/23 07:48:58;;;;;;;;;;;;;;;7.09;86.45;97509.34;5061115;28;20109;-46
2021/01/23 07:51:25;;;;;;;131.27;73.47;;;;;;;7.22;86.61;97492.22;5077759;28;19924;-46
2021/01/23 07:54:12;;;;;;;62.97;37.83;;;;;;;7.26;86.14;97494.59;5078690;28;20048;-46
2021/01/23 07:56:49;;;;;;;42.75;22.00;;;;;;;7.30;86.33;97497.88;5078299;28;20041;-46
2021/01/23 07:59:15;;;;;;;34.20;16.92;;;;;;;7.27;86.36;97485.00;5079997;28;20127;-46
2021/01/23 08:01:41;;;;;;;39.30;19.88;;;;;;;7.26;86.35;97478.97;5077570;28;20055;-46
2021/01/23 08:04:32;;;;;;;102.93;55.03;;;;;;;7.30;85.69;97484.88;5110242;28;20064;-46
2021/01/23 08:07:20;;;;;;;133.40;70.30;;;;;;;7.32;85.78;97484.81;5077778;28;20044;-46
2021/01/23 08:09:47;;;;;;;35.05;16.88;;;;;;;7.29;86.17;97477.97;5077711;28;20426;-46
2021/01/23 08:12:19;;;;;;;33.05;16.08;;;;;;;7.36;85.71;97471.53;5077586;28;20114;-46
2021/01/23 08:14:52;;;;;;;29.88;15.85;;;;;;;7.36;85.78;97458.53;5077538;28;20076;-46
2021/01/23 08:17:18;;;;;;;33.03;17.73;;;;;;;7.32;86.09;97469.19;5077220;28;20098;-46
2021/01/23 08:19:51;;;;;;;34.63;18.42;;;;;;;7.42;85.79;97470.41;5077238;28;20418;-46
2021/01/23 08:22:17;;;;;;;40.78;19.35;;;;;;;7.41;86.11;97471.31;5077092;28;20048;-46
2021/01/23 08:24:43;;;;;;;39.58;20.33;;;;;;;7.45;86.09;97468.50;5077346;28;20094;-46
2021/01/23 08:27:19;;;;;;;55.70;24.90;;;;;;;7.50;85.78;97465.66;5077073;28;20361;-46
2021/01/23 08:29:46;;;;;;;69.00;29.50;;;;;;;7.73;85.19;97465.38;5077238;28;20048;-46
2021/01/23 08:32:12;;;;;;;58.38;26.05;;;;;;;7.82;85.47;97463.19;5077203;28;20086;-46
2021/01/23 08:34:38;;;;;;;44.05;18.92;;;;;;;7.88;85.13;97462.88;5077068;28;20421;-46
2021/01/23 08:37:04;;;;;;;57.72;24.83;;;;;;;7.97;84.39;97468.47;5076865;28;20041;-46
2021/01/23 08:39:43;;;;;;;85.57;32.03;;;;;;;8.05;84.39;97455.03;5077079;28;20052;-46
2021/01/23 08:42:09;;;;;;;83.53;30.58;;;;;;;8.08;84.57;97447.06;5076818;28;20041;-46
2021/01/23 08:44:35;;;;;;;79.53;26.85;;;;;;;8.23;83.91;97445.41;5076952;28;20059;-46
2021/01/23 08:47:02;;;;;;;93.10;31.13;;;;;;;8.28;83.70;97453.81;5076815;28;20048;-46
2021/01/23 08:49:28;;;;;;;84.97;30.83;;;;;;;8.40;83.41;97437.56;5076599;28;20051;-46
2021/01/23 08:51:54;;;;;;;71.10;25.98;;;;;;;8.46;83.48;97438.16;5076539;28;20053;-46
2021/01/23 08:54:21;;;;;;;64.55;24.25;;;;;;;8.53;83.38;97444.72;5076708;28;20055;-46
2021/01/23 08:56:47;;;;;;;61.30;22.42;;;;;;;8.66;82.96;97437.91;5076420;28;20109;-46
2021/01/23 08:59:13;;;;;;;35.10;12.70;;;;;;;8.66;82.94;97443.13;5076535;28;20052;-46
2021/01/23 09:01:39;;;;;;;35.92;16.10;;;;;;;8.77;82.77;97448.59;5076371;28;20346;-46
2021/01/23 09:04:05;;;;;;;38.63;18.92;;;;;;;8.87;82.65;97451.53;5076167;28;20330;-46
2021/01/23 09:06:31;;;;;;;32.88;14.73;;;;;;;9.01;81.92;97446.41;5076613;28;20110;-46
2021/01/23 09:08:56;;;;;;;23.83;12.07;;;;;;;9.12;81.18;97444.03;5076583;28;20441;-46
2021/01/23 09:11:22;;;;;;;29.00;13.85;;;;;;;9.14;81.38;97441.34;5075674;28;20053;-46
2021/01/23 09:13:48;;;;;;;36.97;18.75;;;;;;;9.20;81.10;97442.78;5076468;28;20052;-46
2021/01/23 09:16:14;;;;;;;35.95;17.23;;;;;;;9.31;80.44;97438.59;5076469;28;20044;-46
2021/01/23 09:18:40;;;;;;;36.67;16.40;;;;;;;9.33;80.51;97430.69;5076476;28;20135;-46
2021/01/23 09:21:06;;;;;;;34.47;16.02;;;;;;;9.31;80.63;97433.38;5076400;28;20048;-46
2021/01/23 09:23:32;;;;;;;30.33;15.35;;;;;;;9.39;80.25;97426.84;5075259;28;20438;-46
2021/01/23 09:25:58;;;;;;;34.78;16.65;;;;;;;9.44;79.85;97428.28;5109233;28;20048;-46
2021/01/23 09:28:25;;;;;;;32.08;16.73;;;;;;;9.50;79.49;97421.88;5075440;28;20391;-46
2021/01/23 09:30:50;;;;;;;51.30;23.83;;;;;;;9.47;79.38;97419.44;5076343;28;20048;-46
2021/01/23 09:33:16;;;;;;;60.45;26.42;;;;;;;9.47;79.04;97420.25;5076284;28;20110;-46
2021/01/23 09:35:42;;;;;;;63.28;31.98;;;;;;;9.45;79.68;97418.66;5075961;28;20044;-46
2021/01/23 09:38:08;;;;;;;44.80;25.05;;;;;;;9.50;79.37;97416.63;5076276;28;20482;-46
2021/01/23 09:40:34;;;;;;;47.80;26.02;;;;;;;9.63;78.39;97415.00;5076239;28;20495;-46
2021/01/23 09:43:00;;;;;;;62.70;26.48;;;;;;;9.68;78.02;97406.88;5076244;28;20059;-46
2021/01/23 09:45:25;;;;;;;67.50;25.85;;;;;;;9.62;78.75;97402.00;5075923;28;20449;-47
2021/01/23 09:47:51;;;;;;;46.25;18.95;;;;;;;9.75;77.62;97403.81;5076172;28;20052;-47
2021/01/23 09:50:21;;;;;;;34.10;15.00;;;;;;;9.75;77.78;97398.59;5076138;28;20436;-46
2021/01/23 09:52:47;;;;;;;24.58;13.07;;;;;;;9.77;77.50;97398.47;5075868;28;20119;-46
2021/01/23 09:55:13;;;;;;;39.83;19.50;;;;;;;9.80;77.14;97396.50;5076264;28;20429;-46
2021/01/23 09:57:39;;;;;;;39.75;20.52;;;;;;;9.79;77.51;97397.47;5075773;28;20114;-46
2021/01/23 10:00:06;;;;;;;47.95;30.10;;;;;;;9.86;77.50;97397.09;5076056;28;20090;-46
2021/01/23 10:02:38;;;;;;;;;;;;;;;9.74;76.85;97394.25;5076334;28;20080;-47
2021/01/23 10:05:04;;;;;;;34.97;16.77;;;;;;;9.88;76.73;97395.22;5075989;28;19948;-47
2021/01/23 10:07:30;;;;;;;31.80;16.08;;;;;;;9.98;76.55;97393.75;5075952;28;20059;-47
2021/01/23 10:09:56;;;;;;;32.17;16.20;;;;;;;9.99;76.72;97391.03;5077401;28;20068;-47
2021/01/23 10:12:21;;;;;;;35.83;17.30;;;;;;;10.07;76.67;97390.53;5079884;28;20033;-47
2021/01/23 10:14:48;;;;;;;39.00;18.55;;;;;;;10.12;76.29;97385.06;5079766;28;20048;-47
2021/01/23 10:17:14;;;;;;;37.17;18.05;;;;;;;10.26;75.45;97380.66;5078622;28;20437;-47
2021/01/23 10:19:41;;;;;;;63.55;24.58;;;;;;;10.30;75.19;97370.84;5078572;28;20059;-47
2021/01/23 10:22:07;;;;;;;73.07;28.80;;;;;;;10.39;74.82;97369.44;5079738;28;20052;-47
2021/01/23 10:24:33;;;;;;;61.95;28.17;;;;;;;10.45;74.61;97363.81;5079641;28;20060;-47
2021/01/23 10:26:58;;;;;;;45.75;21.77;;;;;;;10.61;73.76;97368.94;5080437;28;20053;-47
2021/01/23 10:29:24;;;;;;;72.68;30.02;;;;;;;10.60;74.38;97360.25;5079246;28;20052;-47
2021/01/23 10:31:50;;;;;;;68.63;34.20;;;;;;;10.69;73.93;97369.25;5079477;28;20064;-47
2021/01/23 10:34:16;;;;;;;40.83;19.13;;;;;;;10.76;73.23;97362.72;5079119;28;20349;-47
2021/01/23 10:36:42;;;;;;;46.72;22.20;;;;;;;10.85;72.61;97358.66;5079118;28;20055;-47
2021/01/23 10:39:08;;;;;;;38.05;19.35;;;;;;;10.98;72.40;97363.00;5079345;28;20053;-47
2021/01/23 10:41:34;;;;;;;36.75;18.13;;;;;;;11.04;72.27;97364.38;5079000;28;20407;-47
2021/01/23 10:44:00;;;;;;;37.38;18.42;;;;;;;10.99;72.52;97364.69;5079254;28;20064;-47
2021/01/23 10:46:26;;;;;;;25.38;13.00;;;;;;;11.18;71.27;97360.88;5112141;28;20060;-47
2021/01/23 10:48:51;;;;;;;21.20;10.73;;;;;;;11.36;70.41;97346.53;5079224;28;20098;-47
2021/01/23 10:51:17;;;;;;;22.42;10.88;;;;;;;11.33;71.07;97359.00;5078940;28;20037;-47
2021/01/23 10:53:46;;;;;;;18.20;8.02;;;;;;;11.49;70.31;97359.66;5061636;28;20052;-47
2021/01/23 10:56:14;;;;;;;15.60;10.13;;;;;;;11.52;69.96;97346.34;5079105;28;20097;-47
2021/01/23 10:58:39;;;;;;;11.73;5.82;;;;;;;11.72;69.11;97352.00;5078856;28;20045;-47
2021/01/23 11:01:05;;;;;;;13.07;7.65;;;;;;;11.76;70.40;97349.06;5078975;28;20048;-47
2021/01/23 11:03:31;;;;;;;15.38;10.13;;;;;;;12.12;68.91;97352.72;5078634;28;20487;-47
2021/01/23 11:05:57;;;;;;;12.70;7.55;;;;;;;12.38;68.53;97357.00;5078641;28;20041;-47
2021/01/23 11:08:24;;;;;;;9.90;6.07;;;;;;;12.56;68.39;97359.25;5078794;28;20052;-47
2021/01/23 11:10:49;;;;;;;10.25;5.28;;;;;;;13.08;65.86;97353.66;5078499;28;20466;-47
2021/01/23 11:13:15;;;;;;;10.80;5.50;;;;;;;13.35;64.99;97351.75;5078731;28;20052;-47
2021/01/23 11:15:41;;;;;;;13.52;8.23;;;;;;;13.36;64.64;97359.53;5077760;28;20049;-47
2021/01/23 11:18:07;;;;;;;26.08;12.32;;;;;;;13.36;64.67;97356.91;5078382;28;20068;-47
2021/01/23 11:20:33;;;;;;;10.95;4.57;;;;;;;13.40;62.88;97358.34;5078597;28;20072;-48
2021/01/23 11:22:59;;;;;;;13.73;7.00;;;;;;;13.30;63.02;97349.47;5078375;28;20098;-47
2021/01/23 11:25:27;;;;;;;8.48;3.00;;;;;;;13.18;62.86;97340.69;5077327;28;20045;-47
2021/01/23 11:27:54;;;;;;;9.80;4.53;;;;;;;13.16;62.95;97341.72;5077608;28;20342;-47
2021/01/23 11:30:21;;;;;;;6.57;4.20;;;;;;;13.05;63.36;97353.88;5077344;28;20041;-47